Time;durP1;ratioP1;P1;durP2;ratioP2;P2;SDS_P1;SDS_P2;PMS_P1;PMS_P2;Temp;Humidity;BMP_temperature;BMP_pressure;BME280_temperature;BME280_humidity;BME280_pressure;Samples;Min_cycle;Max_cycle;Signal;HPM_P1;HPM_P2
2022/08/06 00:00:28;;;;;;;;;;;;;;;;;;5061196;28;2507;-73
2022/08/06 00:02:53;;;;;;;;;;;;;;;;;;5064162;28;2270;-73
2022/08/06 00:05:18;;;;;;;;;;;;;;;;;;5063868;28;2133;-73
2022/08/06 00:07:43;;;;;;;;;;;;;;;;;;5056543;28;2149;-73
2022/08/06 00:10:09;;;;;;;;;;;;;;;;;;5058235;28;2562;-73
2022/08/06 00:12:34;;;;;;;;;;;;;;;;;;5061796;28;2913;-73
2022/08/06 00:15:00;;;;;;;;;;;;;;;;;;5059440;28;2675;-73
2022/08/06 00:17:25;;;;;;;;;;;;;;;;;;5063437;28;2330;-73
2022/08/06 00:19:50;;;;;;;;;;;;;;;;;;5057696;28;2139;-73
2022/08/06 00:22:16;;;;;;;;;;;;;;;;;;5060644;28;2839;-73
2022/08/06 00:24:41;;;;;;;;;;;;;;;;;;5059114;28;2180;-73
2022/08/06 00:27:06;;;;;;;;;;;;;;;;;;5052465;28;2786;-73
2022/08/06 00:29:31;;;;;;;;;;;;;;;;;;5095398;27;1994;-73
2022/08/06 00:31:56;;;;;;;;;;;;;;;;;;5067755;28;2181;-73
2022/08/06 00:34:22;;;;;;;;;;;;;;;;;;5058936;28;2275;-73
2022/08/06 00:36:47;;;;;;;;;;;;;;;;;;5060528;28;2393;-73
2022/08/06 00:39:12;;;;;;;;;;;;;;;;;;5062567;28;2092;-73
2022/08/06 00:41:38;;;;;;;;;;;;;;;;;;5059982;28;2318;-73
2022/08/06 00:44:03;;;;;;;;;;;;;;;;;;5057152;28;2107;-73
2022/08/06 00:46:28;;;;;;;;;;;;;;;;;;5060060;28;2488;-73
2022/08/06 00:48:53;;;;;;;;;;;;;;;;;;5054936;28;2530;-73
2022/08/06 00:51:19;;;;;;;;;;;;;;;;;;5059896;28;2189;-73
2022/08/06 00:53:44;;;;;;;;;;;;;;;;;;5055882;28;2242;-73
2022/08/06 00:56:10;;;;;;;;;;;;;;;;;;5062886;28;2720;-73
2022/08/06 00:58:35;;;;;;;;;;;;;;;;;;5059012;28;2506;-73
2022/08/06 01:01:01;;;;;;;;;;;;;;;;;;5053101;28;2471;-73
2022/08/06 01:03:26;;;;;;;;;;;;;;;;;;5058840;28;2294;-73
2022/08/06 01:05:51;;;;;;;;;;;;;;;;;;5055746;28;2472;-73
2022/08/06 01:08:16;;;;;;;;;;;;;;;;;;5063634;28;2196;-73
2022/08/06 01:10:42;;;;;;;;;;;;;;;;;;5058209;28;2336;-73
2022/08/06 01:13:07;;;;;;;;;;;;;;;;;;5058155;28;2744;-73
2022/08/06 01:15:33;;;;;;;;;;;;;;;;;;5058487;28;2842;-73
2022/08/06 01:18:04;;;;;;;;;;;;;;;;;;5056580;28;2636;-73
2022/08/06 01:20:38;;;;;;;;;;;;;;;;;;5056219;28;2181;-72
2022/08/06 01:23:10;;;;;;;;;;;;;;;;;;5057244;28;2423;-73
2022/08/06 01:25:47;;;;;;;;;;;;;;;;;;5062242;28;2973;-73
2022/08/06 01:28:15;;;;;;;;;;;;;;;;;;5060945;28;2193;-73
2022/08/06 01:30:44;;;;;;;;;;;;;;;;;;5056715;28;2746;-73
2022/08/06 01:33:12;;;;;;;;;;;;;;;;;;5054127;28;2811;-73
2022/08/06 01:35:39;;;;;;;;;;;;;;;;;;5056257;28;2769;-73
2022/08/06 01:38:13;;;;;;;;;;;;;;;;;;5057648;28;2740;-73
2022/08/06 01:40:39;;;;;;;;;;;;;;;;;;5057116;28;2249;-73
2022/08/06 01:43:06;;;;;;;;;;;;;;;;;;5060169;28;2070;-73
2022/08/06 01:45:32;;;;;;;;;;;;;;;;;;5060734;28;2878;-73
2022/08/06 01:48:01;;;;;;;;;;;;;;;;;;5052354;28;2452;-73
2022/08/06 01:50:29;;;;;;;;;;;;;;;;;;5064626;28;2936;-73
2022/08/06 01:52:56;;;;;;;;;;;;;;;;;;5053192;28;2326;-73
2022/08/06 01:55:24;;;;;;;;;;;;;;;;;;5056457;28;2883;-73
2022/08/06 01:57:52;;;;;;;;;;;;;;;;;;5050641;28;2318;-73
2022/08/06 02:00:17;;;;;;;;;;;;;;;;;;5057823;28;2823;-73
2022/08/06 02:02:45;;;;;;;;;;;;;;;;;;5055093;28;2251;-73
2022/08/06 02:05:12;;;;;;;;;;;;;;;;;;5061979;28;2765;-73
2022/08/06 02:07:40;;;;;;;;;;;;;;;;;;5057289;28;2912;-73
2022/08/06 02:10:06;;;;;;;;;;;;;;;;;;5058506;28;2893;-73
2022/08/06 02:12:32;;;;;;;;;;;;;;;;;;5058834;28;2789;-73
2022/08/06 02:15:04;;;;;;;;;;;;;;;;;;5059969;28;2939;-73
2022/08/06 02:17:31;;;;;;;;;;;;;;;;;;5060638;28;2923;-73
2022/08/06 02:20:00;;;;;;;;;;;;;;;;;;5052895;28;2299;-73
2022/08/06 02:22:27;;;;;;;;;;;;;;;;;;5058320;28;2985;-73
2022/08/06 02:24:52;;;;;;;;;;;;;;;;;;5053176;28;3008;-73
2022/08/06 02:27:19;;;;;;;;;;;;;;;;;;5062482;28;2422;-73
2022/08/06 02:29:45;;;;;;;;;;;;;;;;;;5056915;28;2825;-73
2022/08/06 02:32:13;;;;;;;;;;;;;;;;;;5064893;28;2077;-73
2022/08/06 02:34:38;;;;;;;;;;;;;;;;;;5054136;28;2389;-73
2022/08/06 02:37:10;;;;;;;;;;;;;;;;;;5061369;28;2826;-73
2022/08/06 02:39:38;;;;;;;;;;;;;;;;;;5055458;28;2255;-73
2022/08/06 02:42:03;;;;;;;;;;;;;;;;;;5064196;28;2736;-73
2022/08/06 02:44:38;;;;;;;;;;;;;;;;;;5060258;28;2279;-73
2022/08/06 02:47:13;;;;;;;;;;;;;;;;;;5059044;28;2303;-73
2022/08/06 02:49:41;;;;;;;;;;;;;;;;;;5059861;28;2759;-73
2022/08/06 02:52:17;;;;;;;;;;;;;;;;;;5061661;28;2636;-73
2022/08/06 02:54:46;;;;;;;;;;;;;;;;;;5056133;28;2181;-73
2022/08/06 02:57:13;;;;;;;;;;;;;;;;;;5058109;28;2826;-73
2022/08/06 02:59:42;;;;;;;;;;;;;;;;;;5061854;28;2093;-73
2022/08/06 03:02:09;;;;;;;;;;;;;;;;;;5056502;28;2816;-73
2022/08/06 03:04:36;;;;;;;;;;;;;;;;;;5063798;28;2145;-73
2022/08/06 03:07:03;;;;;;;;;;;;;;;;;;5056383;28;2588;-73
2022/08/06 03:09:29;;;;;;;;;;;;;;;;;;5051909;28;2252;-73
2022/08/06 03:11:55;;;;;;;;;;;;;;;;;;5057119;28;2407;-73
2022/08/06 03:14:21;;;;;;;;;;;;;;;;;;5053969;28;2195;-73
2022/08/06 03:16:48;;;;;;;;;;;;;;;;;;5057524;28;2752;-73
2022/08/06 03:19:13;;;;;;;;;;;;;;;;;;5055478;28;2489;-71
2022/08/06 03:21:39;;;;;;;;;;;;;;;;;;5053685;28;2477;-71
2022/08/06 03:24:06;;;;;;;;;;;;;;;;;;5053738;28;2619;-71
2022/08/06 03:26:32;;;;;;;;;;;;;;;;;;5061429;28;2779;-72
2022/08/06 03:28:58;;;;;;;;;;;;;;;;;;5055545;28;2284;-72
2022/08/06 03:31:24;;;;;;;;;;;;;;;;;;5057923;28;2850;-72
2022/08/06 03:33:50;;;;;;;;;;;;;;;;;;5053303;28;2188;-72
2022/08/06 03:36:16;;;;;;;;;;;;;;;;;;5060266;28;2766;-72
2022/08/06 03:38:45;;;;;;;;;;;;;;;;;;5055520;28;2700;-72
2022/08/06 03:41:11;;;;;;;;;;;;;;;;;;5057363;28;2458;-72
2022/08/06 03:43:37;;;;;;;;;;;;;;;;;;5058464;28;2892;-72
2022/08/06 03:46:03;;;;;;;;;;;;;;;;;;5055409;28;2867;-72
2022/08/06 03:48:32;;;;;;;;;;;;;;;;;;5056980;28;2605;-72
2022/08/06 03:50:59;;;;;;;;;;;;;;;;;;5052466;28;1985;-72
2022/08/06 03:53:25;;;;;;;;;;;;;;;;;;5056411;28;3027;-72
2022/08/06 03:55:54;;;;;;;;;;;;;;;;;;5056680;28;2770;-72
2022/08/06 03:58:20;;;;;;;;;;;;;;;;;;5060616;28;2968;-72
2022/08/06 04:00:49;;;;;;;;;;;;;;;;;;5057194;28;2203;-72
2022/08/06 04:03:15;;;;;;;;;;;;;;;;;;5062325;28;2289;-73
2022/08/06 04:05:41;;;;;;;;;;;;;;;;;;5060207;28;2260;-72
2022/08/06 04:08:07;;;;;;;;;;;;;;;;;;5057114;28;2227;-73
2022/08/06 04:10:36;;;;;;;;;;;;;;;;;;5063730;28;2218;-73
2022/08/06 04:13:06;;;;;;;;;;;;;;;;;;5058618;28;2130;-72
2022/08/06 04:15:31;;;;;;;;;;;;;;;;;;5066158;28;2868;-72
2022/08/06 04:17:57;;;;;;;;;;;;;;;;;;5055363;28;2630;-73
2022/08/06 04:20:25;;;;;;;;;;;;;;;;;;5057653;28;2260;-73
2022/08/06 04:22:51;;;;;;;;;;;;;;;;;;5054320;28;2309;-72
2022/08/06 04:25:16;;;;;;;;;;;;;;;;;;5053153;28;2761;-73
2022/08/06 04:27:42;;;;;;;;;;;;;;;;;;5052510;28;2319;-72
2022/08/06 04:30:08;;;;;;;;;;;;;;;;;;5060668;28;2698;-73
2022/08/06 04:32:33;;;;;;;;;;;;;;;;;;5063142;28;2162;-72
2022/08/06 04:35:01;;;;;;;;;;;;;;;;;;5059823;28;1943;-73
2022/08/06 04:37:26;;;;;;;;;;;;;;;;;;5061295;28;2753;-72
2022/08/06 04:39:51;;;;;;;;;;;;;;;;;;5057562;28;2905;-72
2022/08/06 04:42:17;;;;;;;;;;;;;;;;;;5065679;28;2369;-72
2022/08/06 04:44:42;;;;;;;;;;;;;;;;;;5054849;28;2084;-72
2022/08/06 04:47:07;;;;;;;;;;;;;;;;;;5056416;28;2918;-72
2022/08/06 04:49:32;;;;;;;;;;;;;;;;;;5056174;28;1945;-72
2022/08/06 04:51:58;;;;;;;;;;;;;;;;;;5051288;28;2850;-72
2022/08/06 04:54:23;;;;;;;;;;;;;;;;;;5056984;28;1758;-73
2022/08/06 04:56:48;;;;;;;;;;;;;;;;;;5053385;28;2170;-73
2022/08/06 04:59:14;;;;;;;;;;;;;;;;;;5056380;28;1977;-72
2022/08/06 05:01:39;;;;;;;;;;;;;;;;;;5055616;28;2272;-72
2022/08/06 05:04:04;;;;;;;;;;;;;;;;;;5058625;28;1759;-72
2022/08/06 05:06:39;;;;;;;;;;;;;;;;;;5063749;28;2623;-72
2022/08/06 05:09:08;;;;;;;;;;;;;;;;;;5052454;28;2315;-73
2022/08/06 05:11:37;;;;;;;;;;;;;;;;;;5058362;28;2868;-72
2022/08/06 05:14:07;;;;;;;;;;;;;;;;;;5055292;28;1886;-73
2022/08/06 05:16:34;;;;;;;;;;;;;;;;;;5055917;28;1952;-73
2022/08/06 05:19:03;;;;;;;;;;;;;;;;;;5053747;28;2747;-72
2022/08/06 05:21:31;;;;;;;;;;;;;;;;;;5058754;28;2898;-72
2022/08/06 05:23:57;;;;;;;;;;;;;;;;;;5054771;28;2846;-72
2022/08/06 05:26:23;;;;;;;;;;;;;;;;;;5059783;28;2292;-73
2022/08/06 05:28:48;;;;;;;;;;;;;;;;;;5051570;28;2860;-72
2022/08/06 05:31:13;;;;;;;;;;;;;;;;;;5063991;28;2778;-72
2022/08/06 05:33:39;;;;;;;;;;;;;;;;;;5062820;28;3014;-72
2022/08/06 05:36:06;;;;;;;;;;;;;;;;;;5064111;28;2271;-72
2022/08/06 05:38:33;;;;;;;;;;;;;;;;;;5058559;28;2615;-72
2022/08/06 05:40:58;;;;;;;;;;;;;;;;;;5059709;28;2123;-72
2022/08/06 05:43:24;;;;;;;;;;;;;;;;;;5054975;28;2261;-73
2022/08/06 05:45:52;;;;;;;;;;;;;;;;;;5058012;28;2842;-72
2022/08/06 05:48:18;;;;;;;;;;;;;;;;;;5056163;28;2753;-73
2022/08/06 05:50:46;;;;;;;;;;;;;;;;;;5057499;28;2316;-72
2022/08/06 05:53:16;;;;;;;;;;;;;;;;;;5061183;28;2892;-73
2022/08/06 05:55:41;;;;;;;;;;;;;;;;;;5062739;28;3040;-73
2022/08/06 05:58:14;;;;;;;;;;;;;;;;;;5056543;28;2731;-73
2022/08/06 06:00:40;;;;;;;;;;;;;;;;;;5059742;28;2920;-72
2022/08/06 06:03:07;;;;;;;;;;;;;;;;;;5067451;28;2107;-72
2022/08/06 06:05:34;;;;;;;;;;;;;;;;;;5067365;28;2698;-72
2022/08/06 06:08:00;;;;;;;;;;;;;;;;;;5059396;28;2277;-72
2022/08/06 06:10:26;;;;;;;;;;;;;;;;;;5060692;28;2726;-73
2022/08/06 06:12:52;;;;;;;;;;;;;;;;;;5062812;28;2932;-72
2022/08/06 06:15:17;;;;;;;;;;;;;;;;;;5062966;28;2887;-73
2022/08/06 06:17:42;;;;;;;;;;;;;;;;;;5056793;28;2333;-73
2022/08/06 06:20:11;;;;;;;;;;;;;;;;;;5059959;28;1655;-73
2022/08/06 06:22:44;;;;;;;;;;;;;;;;;;5065637;28;2838;-72
2022/08/06 06:25:13;;;;;;;;;;;;;;;;;;5057534;28;1889;-72
2022/08/06 06:27:44;;;;;;;;;;;;;;;;;;5057931;28;2895;-72
2022/08/06 06:30:14;;;;;;;;;;;;;;;;;;5052132;28;2011;-72
2022/08/06 06:32:49;;;;;;;;;;;;;;;;;;5058479;28;2051;-72
2022/08/06 06:35:23;;;;;;;;;;;;;;;;;;5060889;28;1674;-72
2022/08/06 06:37:56;;;;;;;;;;;;;;;;;;5064736;28;2855;-73
2022/08/06 06:40:38;;;;;;;;;;;;;;;;;;5062360;28;2245;-72
2022/08/06 06:43:12;;;;;;;;;;;;;;;;;;5057963;28;2113;-72
2022/08/06 06:46:00;;;;;;;;;;;;;;;;;;5061484;28;2779;-72
2022/08/06 06:48:31;;;;;;;;;;;;;;;;;;5060521;28;2545;-72
2022/08/06 06:50:58;;;;;;;;;;;;;;;;;;5058556;28;3050;-72
2022/08/06 06:53:26;;;;;;;;;;;;;;;;;;5066539;28;1984;-72
2022/08/06 06:55:53;;;;;;;;;;;;;;;;;;5054757;28;1972;-72
2022/08/06 06:58:33;;;;;;;;;;;;;;;;;;5067545;28;2228;-72
2022/08/06 07:00:58;;;;;;;;;;;;;;;;;;5053456;28;2791;-72
2022/08/06 07:03:25;;;;;;;;;;;;;;;;;;5063101;28;2423;-72
2022/08/06 07:05:51;;;;;;;;;;;;;;;;;;5057934;28;2068;-72
2022/08/06 07:08:18;;;;;;;;;;;;;;;;;;5065201;28;2622;-72
2022/08/06 07:10:44;;;;;;;;;;;;;;;;;;5065461;28;2175;-72
2022/08/06 07:13:10;;;;;;;;;;;;;;;;;;5064022;28;2637;-72
2022/08/06 07:15:35;;;;;;;;;;;;;;;;;;5063070;28;2815;-72
2022/08/06 07:18:01;;;;;;;;;;;;;;;;;;5059469;28;2641;-72
2022/08/06 07:20:28;;;;;;;;;;;;;;;;;;5063398;28;2780;-72
2022/08/06 07:22:54;;;;;;;;;;;;;;;;;;5061430;28;2534;-72
2022/08/06 07:25:20;;;;;;;;;;;;;;;;;;5060960;28;1805;-72
2022/08/06 07:27:48;;;;;;;;;;;;;;;;;;5062668;28;2809;-72
2022/08/06 07:30:15;;;;;;;;;;;;;;;;;;5067909;28;1913;-73
2022/08/06 07:32:42;;;;;;;;;;;;;;;;;;5061815;28;2957;-72
2022/08/06 07:35:08;;;;;;;;;;;;;;;;;;5066264;28;1885;-72
2022/08/06 07:37:34;;;;;;;;;;;;;;;;;;5063462;28;2095;-72
2022/08/06 07:40:00;;;;;;;;;;;;;;;;;;5063689;28;1754;-72
2022/08/06 07:42:26;;;;;;;;;;;;;;;;;;5062396;28;2183;-72
2022/08/06 07:44:55;;;;;;;;;;;;;;;;;;5070404;28;2268;-72
2022/08/06 07:47:22;;;;;;;;;;;;;;;;;;5061856;28;2158;-72
2022/08/06 07:49:51;;;;;;;;;;;;;;;;;;5066876;28;1922;-72
2022/08/06 07:52:18;;;;;;;;;;;;;;;;;;5064458;28;3165;-72
2022/08/06 07:54:43;;;;;;;;;;;;;;;;;;5063195;28;1848;-72
2022/08/06 07:57:10;;;;;;;;;;;;;;;;;;5070709;28;1836;-72
2022/08/06 07:59:35;;;;;;;;;;;;;;;;;;5067505;28;2408;-72
2022/08/06 08:02:02;;;;;;;;;;;;;;;;;;5061385;28;2866;-72
2022/08/06 08:07:12;;;;;;;;;;;;;;;;;;5065802;28;1516;-73
2022/08/06 08:09:38;;;;;;;;;;;;;;;;;;5067216;28;2127;-72
2022/08/06 08:12:06;;;;;;;;;;;;;;;;;;5063503;28;2162;-72
2022/08/06 08:14:31;;;;;;;;;;;;;;;;;;5060636;28;2787;-72
2022/08/06 08:16:56;;;;;;;;;;;;;;;;;;5063245;28;2332;-72
2022/08/06 08:19:22;;;;;;;;;;;;;;;;;;5066834;28;2354;-73
2022/08/06 08:21:48;;;;;;;;;;;;;;;;;;5065953;28;2842;-73
2022/08/06 08:24:14;;;;;;;;;;;;;;;;;;5059707;28;2894;-73
2022/08/06 08:26:39;;;;;;;;;;;;;;;;;;5066818;28;2903;-73
2022/08/06 08:29:04;;;;;;;;;;;;;;;;;;5060154;28;2240;-73
2022/08/06 08:31:29;;;;;;;;;;;;;;;;;;5069794;28;2612;-73
2022/08/06 08:33:55;;;;;;;;;;;;;;;;;;5062992;28;2886;-72
2022/08/06 08:36:21;;;;;;;;;;;;;;;;;;5069563;28;2879;-73
2022/08/06 08:38:46;;;;;;;;;;;;;;;;;;5064072;28;2110;-73
2022/08/06 08:41:23;;;;;;;;;;;;;;;;;;5065830;28;1984;-73
2022/08/06 08:44:07;;;;;;;;;;;;;;;;;;5059749;28;2290;-73
2022/08/06 08:46:37;;;;;;;;;;;;;;;;;;5063915;28;1629;-73
2022/08/06 08:49:04;;;;;;;;;;;;;;;;;;5062150;28;2298;-73
2022/08/06 08:51:30;;;;;;;;;;;;;;;;;;5063468;28;1961;-73
2022/08/06 08:53:59;;;;;;;;;;;;;;;;;;5061378;28;2914;-73
2022/08/06 08:56:25;;;;;;;;;;;;;;;;;;5066551;28;2871;-73
2022/08/06 08:58:51;;;;;;;;;;;;;;;;;;5059428;28;2340;-73
2022/08/06 09:01:16;;;;;;;;;;;;;;;;;;5063563;28;1893;-73
2022/08/06 09:03:42;;;;;;;;;;;;;;;;;;5066207;28;2734;-73
2022/08/06 09:06:08;;;;;;;;;;;;;;;;;;5060369;28;1939;-73
2022/08/06 09:08:35;;;;;;;;;;;;;;;;;;5067616;28;2633;-73
2022/08/06 09:11:00;;;;;;;;;;;;;;;;;;5066965;28;1970;-73
2022/08/06 09:13:28;;;;;;;;;;;;;;;;;;5064967;28;2117;-73
2022/08/06 09:15:54;;;;;;;;;;;;;;;;;;5064039;28;1981;-73
2022/08/06 09:18:20;;;;;;;;;;;;;;;;;;5065959;28;2213;-73
2022/08/06 09:20:46;;;;;;;;;;;;;;;;;;5060385;28;1790;-73
2022/08/06 09:23:12;;;;;;;;;;;;;;;;;;5060629;28;2499;-73
2022/08/06 09:25:39;;;;;;;;;;;;;;;;;;5061014;28;2154;-73
2022/08/06 09:28:09;;;;;;;;;;;;;;;;;;5063997;28;2206;-80
2022/08/06 09:30:34;;;;;;;;;;;;;;;;;;5071331;28;1906;-79
2022/08/06 09:32:59;;;;;;;;;;;;;;;;;;5060507;28;2078;-73
2022/08/06 09:35:26;;;;;;;;;;;;;;;;;;5069312;28;1594;-73
2022/08/06 09:37:59;;;;;;;;;;;;;;;;;;5065014;28;2188;-73
2022/08/06 09:40:24;;;;;;;;;;;;;;;;;;5060528;28;1880;-73
2022/08/06 09:42:50;;;;;;;;;;;;;;;;;;5056671;28;2801;-73
2022/08/06 09:45:16;;;;;;;;;;;;;;;;;;5061715;28;1946;-73
2022/08/06 09:47:42;;;;;;;;;;;;;;;;;;5054978;28;2043;-73
2022/08/06 09:50:07;;;;;;;;;;;;;;;;;;5061348;28;1961;-73
2022/08/06 09:52:33;;;;;;;;;;;;;;;;;;5067095;28;2076;-73
2022/08/06 09:54:58;;;;;;;;;;;;;;;;;;5059301;28;2328;-73
2022/08/06 09:57:24;;;;;;;;;;;;;;;;;;5063013;28;1976;-73
2022/08/06 09:59:50;;;;;;;;;;;;;;;;;;5058326;28;2819;-81
2022/08/06 10:02:17;;;;;;;;;;;;;;;;;;5061083;28;2130;-82
2022/08/06 10:04:43;;;;;;;;;;;;;;;;;;5063187;28;2332;-82
2022/08/06 10:07:08;;;;;;;;;;;;;;;;;;5057462;28;2776;-81
2022/08/06 10:09:34;;;;;;;;;;;;;;;;;;5060490;28;1980;-81
2022/08/06 10:12:00;;;;;;;;;;;;;;;;;;5058407;28;2144;-81
2022/08/06 10:14:25;;;;;;;;;;;;;;;;;;5062909;28;2284;-80
2022/08/06 10:17:13;;;;;;;;;;;;;;;;;;5065106;28;2119;-78
2022/08/06 10:19:39;;;;;;;;;;;;;;;;;;5065226;28;2111;-80
2022/08/06 10:22:12;;;;;;;;;;;;;;;;;;5055934;28;1955;-81
2022/08/06 10:24:40;;;;;;;;;;;;;;;;;;5052613;28;2246;-78
2022/08/06 10:27:06;;;;;;;;;;;;;;;;;;5059826;28;1992;-81
2022/08/06 10:29:34;;;;;;;;;;;;;;;;;;5059412;28;2208;-82
2022/08/06 10:32:01;;;;;;;;;;;;;;;;;;5059331;28;2292;-81
2022/08/06 10:34:27;;;;;;;;;;;;;;;;;;5061192;28;2161;-81
2022/08/06 10:36:54;;;;;;;;;;;;;;;;;;5061394;28;2083;-81
2022/08/06 10:39:26;;;;;;;;;;;;;;;;;;5064077;28;2138;-80
2022/08/06 10:41:53;;;;;;;;;;;;;;;;;;5065394;28;2281;-80
2022/08/06 10:44:19;;;;;;;;;;;;;;;;;;5054097;28;1996;-82
2022/08/06 10:46:44;;;;;;;;;;;;;;;;;;5062249;28;2146;-81
2022/08/06 10:49:10;;;;;;;;;;;;;;;;;;5064044;28;2227;-80
2022/08/06 10:51:36;;;;;;;;;;;;;;;;;;5065438;28;2010;-80
2022/08/06 10:54:02;;;;;;;;;;;;;;;;;;5059156;28;2011;-80
2022/08/06 10:56:28;;;;;;;;;;;;;;;;;;5065387;28;2292;-80
2022/08/06 10:58:53;;;;;;;;;;;;;;;;;;5054629;28;2059;-78
2022/08/06 11:01:37;;;;;;;;;;;;;;;;;;5056459;28;2391;-80
2022/08/06 11:04:13;;;;;;;;;;;;;;;;;;5053906;28;1935;-80
2022/08/06 11:06:39;;;;;;;;;;;;;;;;;;5060668;28;1635;-80
2022/08/06 11:09:23;;;;;;;;;;;;;;;;;;5058849;28;2120;-79
2022/08/06 11:11:56;;;;;;;;;;;;;;;;;;5069707;28;1961;-80
2022/08/06 11:14:22;;;;;;;;;;;;;;;;;;5052703;28;1967;-81
2022/08/06 11:16:54;;;;;;;;;;;;;;;;;;5057010;28;2145;-80
2022/08/06 11:19:36;;;;;;;;;;;;;;;;;;5063459;28;2196;-79
2022/08/06 11:22:01;;;;;;;;;;;;;;;;;;5055402;28;2164;-79
2022/08/06 11:24:26;;;;;;;;;;;;;;;;;;5069037;28;2681;-79
2022/08/06 11:26:52;;;;;;;;;;;;;;;;;;5055099;28;2181;-78
2022/08/06 11:29:17;;;;;;;;;;;;;;;;;;5055646;28;2219;-79
2022/08/06 11:31:47;;;;;;;;;;;;;;;;;;5063774;28;1826;-78
2022/08/06 11:34:14;;;;;;;;;;;;;;;;;;5059151;28;2046;-77
2022/08/06 11:36:45;;;;;;;;;;;;;;;;;;5065682;28;2270;-79
2022/08/06 11:39:10;;;;;;;;;;;;;;;;;;5057951;28;2633;-79
2022/08/06 11:41:47;;;;;;;;;;;;;;;;;;5071121;28;2083;-78
2022/08/06 11:44:15;;;;;;;;;;;;;;;;;;5060323;28;2089;-78
2022/08/06 11:46:41;;;;;;;;;;;;;;;;;;5062520;28;2929;-79
2022/08/06 11:49:23;;;;;;;;;;;;;;;;;;5052940;28;2172;-78
2022/08/06 11:51:48;;;;;;;;;;;;;;;;;;5057922;28;1937;-78
2022/08/06 11:54:19;;;;;;;;;;;;;;;;;;5064333;28;2045;-78
2022/08/06 11:57:09;;;;;;;;;;;;;;;;;;5062915;28;3027;-78
2022/08/06 11:59:38;;;;;;;;;;;;;;;;;;5059451;28;1778;-78
2022/08/06 12:02:04;;;;;;;;;;;;;;;;;;5059014;28;2139;-78
2022/08/06 12:04:35;;;;;;;;;;;;;;;;;;5067105;28;2261;-72
2022/08/06 12:07:25;;;;;;;;;;;;;;;;;;5060909;28;2890;-72
2022/08/06 12:09:59;;;;;;;;;;;;;;;;;;5065756;28;2642;-72
2022/08/06 12:12:25;;;;;;;;;;;;;;;;;;5065980;28;2609;-72
2022/08/06 12:14:51;;;;;;;;;;;;;;;;;;5063656;28;2872;-72
2022/08/06 12:17:19;;;;;;;;;;;;;;;;;;5061314;28;1833;-72
2022/08/06 12:19:46;;;;;;;;;;;;;;;;;;5063299;28;2096;-72
2022/08/06 12:22:14;;;;;;;;;;;;;;;;;;5064689;28;2262;-72
2022/08/06 12:24:43;;;;;;;;;;;;;;;;;;5058021;28;1964;-72
2022/08/06 12:27:13;;;;;;;;;;;;;;;;;;5065053;28;2765;-72
2022/08/06 12:29:40;;;;;;;;;;;;;;;;;;5060378;28;2196;-72
2022/08/06 12:32:24;;;;;;;;;;;;;;;;;;5064286;28;2699;-72
2022/08/06 12:34:49;;;;;;;;;;;;;;;;;;5064305;28;2852;-72
2022/08/06 12:37:15;;;;;;;;;;;;;;;;;;5064192;28;1906;-72
2022/08/06 12:40:26;;;;;;;;;;;;;;;;;;5065827;28;1943;-70
2022/08/06 12:42:27;;;;;;;;;;;;;;;;;;5067314;28;1692;-70
2022/08/06 12:44:53;;;;;;;;;;;;;;;;;;5063434;28;2853;-72
2022/08/06 12:47:19;;;;;;;;;;;;;;;;;;5063912;28;2142;-72
2022/08/06 12:49:44;;;;;;;;;;;;;;;;;;5060426;28;1977;-72
2022/08/06 12:52:17;;;;;;;;;;;;;;;;;;5058787;28;2018;-72
2022/08/06 12:54:42;;;;;;;;;;;;;;;;;;5057155;28;1929;-70
2022/08/06 12:57:08;;;;;;;;;;;;;;;;;;5060107;28;2521;-70
2022/08/06 12:59:33;;;;;;;;;;;;;;;;;;5061241;28;2959;-70
2022/08/06 13:01:58;;;;;;;;;;;;;;;;;;5060641;28;2134;-70
2022/08/06 13:04:24;;;;;;;;;;;;;;;;;;5060742;28;2623;-70
2022/08/06 13:06:50;;;;;;;;;;;;;;;;;;5064996;28;2591;-70
2022/08/06 13:09:16;;;;;;;;;;;;;;;;;;5063304;28;2593;-70
2022/08/06 13:11:41;;;;;;;;;;;;;;;;;;5065029;28;2784;-70
2022/08/06 13:14:08;;;;;;;;;;;;;;;;;;5059060;28;2010;-70
2022/08/06 13:16:40;;;;;;;;;;;;;;;;;;5059600;28;1770;-71
2022/08/06 13:19:13;;;;;;;;;;;;;;;;;;5072206;28;2511;-71
2022/08/06 13:21:39;;;;;;;;;;;;;;;;;;5059585;28;1848;-71
2022/08/06 13:24:05;;;;;;;;;;;;;;;;;;5058929;28;1995;-71
2022/08/06 13:26:31;;;;;;;;;;;;;;;;;;5060757;28;2971;-71
2022/08/06 13:29:18;;;;;;;;;;;;;;;;;;5064946;28;2376;-71
2022/08/06 13:31:44;;;;;;;;;;;;;;;;;;5054753;28;1912;-71
2022/08/06 13:34:14;;;;;;;;;;;;;;;;;;5064624;28;2788;-71
2022/08/06 13:36:41;;;;;;;;;;;;;;;;;;5055704;28;1921;-71
2022/08/06 13:39:18;;;;;;;;;;;;;;;;;;5061336;28;2608;-70
2022/08/06 13:41:43;;;;;;;;;;;;;;;;;;5074818;28;2109;-71
2022/08/06 13:44:25;;;;;;;;;;;;;;;;;;5064536;28;2749;-71
2022/08/06 13:46:51;;;;;;;;;;;;;;;;;;5055153;28;1794;-71
2022/08/06 13:49:16;;;;;;;;;;;;;;;;;;5060694;28;2764;-71
2022/08/06 13:51:41;;;;;;;;;;;;;;;;;;5060654;28;2894;-70
2022/08/06 13:54:07;;;;;;;;;;;;;;;;;;5061436;28;2540;-71
2022/08/06 13:56:32;;;;;;;;;;;;;;;;;;5058526;28;1714;-71
2022/08/06 13:58:57;;;;;;;;;;;;;;;;;;5062432;28;2387;-71
2022/08/06 14:01:23;;;;;;;;;;;;;;;;;;5056942;28;1833;-71
2022/08/06 14:03:48;;;;;;;;;;;;;;;;;;5062163;28;2138;-71
2022/08/06 14:06:13;;;;;;;;;;;;;;;;;;5060644;28;1897;-71
2022/08/06 14:08:38;;;;;;;;;;;;;;;;;;5061996;28;2566;-71
2022/08/06 14:11:03;;;;;;;;;;;;;;;;;;5058898;28;1979;-71
2022/08/06 14:13:29;;;;;;;;;;;;;;;;;;5059476;28;2320;-71
2022/08/06 14:15:54;;;;;;;;;;;;;;;;;;5058091;28;1962;-71
2022/08/06 14:18:20;;;;;;;;;;;;;;;;;;5062769;28;2115;-71
2022/08/06 14:20:46;;;;;;;;;;;;;;;;;;5054726;28;2543;-71
2022/08/06 14:23:11;;;;;;;;;;;;;;;;;;5065771;28;2890;-71
2022/08/06 14:25:36;;;;;;;;;;;;;;;;;;5057641;28;1934;-71
2022/08/06 14:28:03;;;;;;;;;;;;;;;;;;5055158;28;2047;-71
2022/08/06 14:30:28;;;;;;;;;;;;;;;;;;5058991;28;3075;-71
2022/08/06 14:32:53;;;;;;;;;;;;;;;;;;5057024;28;2079;-71
2022/08/06 14:35:19;;;;;;;;;;;;;;;;;;5057146;28;2087;-71
2022/08/06 14:37:44;;;;;;;;;;;;;;;;;;5059313;28;2776;-71
2022/08/06 14:40:10;;;;;;;;;;;;;;;;;;5057053;28;2751;-71
2022/08/06 14:45:19;;;;;;;;;;;;;;;;;;5056579;28;2307;-71
2022/08/06 14:47:45;;;;;;;;;;;;;;;;;;5062872;28;2701;-71
2022/08/06 14:50:10;;;;;;;;;;;;;;;;;;5057215;28;2683;-71
2022/08/06 14:52:35;;;;;;;;;;;;;;;;;;5058019;28;2502;-71
2022/08/06 14:55:00;;;;;;;;;;;;;;;;;;5054975;28;2792;-71
2022/08/06 14:57:26;;;;;;;;;;;;;;;;;;5065143;28;2154;-71
2022/08/06 14:59:51;;;;;;;;;;;;;;;;;;5058412;28;2329;-71
2022/08/06 15:02:17;;;;;;;;;;;;;;;;;;5057476;28;2772;-71
2022/08/06 15:04:42;;;;;;;;;;;;;;;;;;5060708;28;2338;-71
2022/08/06 15:07:08;;;;;;;;;;;;;;;;;;5055425;28;1981;-71
2022/08/06 15:09:33;;;;;;;;;;;;;;;;;;5058890;28;2749;-71
2022/08/06 15:11:59;;;;;;;;;;;;;;;;;;5056766;28;1995;-71
2022/08/06 15:14:26;;;;;;;;;;;;;;;;;;5060665;28;2144;-70
2022/08/06 15:16:51;;;;;;;;;;;;;;;;;;5054090;28;1830;-70
2022/08/06 15:19:16;;;;;;;;;;;;;;;;;;5056616;28;2075;-71
2022/08/06 15:21:41;;;;;;;;;;;;;;;;;;5057560;28;1872;-71
2022/08/06 15:24:06;;;;;;;;;;;;;;;;;;5057496;28;2657;-70
2022/08/06 15:26:32;;;;;;;;;;;;;;;;;;5055358;28;2138;-71
2022/08/06 15:28:57;;;;;;;;;;;;;;;;;;5054942;28;2476;-70
2022/08/06 15:31:22;;;;;;;;;;;;;;;;;;5056092;28;1914;-70
2022/08/06 15:33:47;;;;;;;;;;;;;;;;;;5060595;28;2931;-71
2022/08/06 15:36:13;;;;;;;;;;;;;;;;;;5055916;28;1825;-70
2022/08/06 15:38:39;;;;;;;;;;;;;;;;;;5060093;28;1985;-70
2022/08/06 15:41:04;;;;;;;;;;;;;;;;;;5053291;28;2707;-70
2022/08/06 15:43:30;;;;;;;;;;;;;;;;;;5061764;28;2130;-70
2022/08/06 15:45:57;;;;;;;;;;;;;;;;;;5057311;28;2681;-70
2022/08/06 15:48:24;;;;;;;;;;;;;;;;;;5062038;28;2921;-71
2022/08/06 15:50:50;;;;;;;;;;;;;;;;;;5058017;28;2882;-71
2022/08/06 15:53:15;;;;;;;;;;;;;;;;;;5061027;28;2011;-71
2022/08/06 15:55:41;;;;;;;;;;;;;;;;;;5063116;28;1920;-71
2022/08/06 15:58:06;;;;;;;;;;;;;;;;;;5060809;28;1945;-71
2022/08/06 16:00:32;;;;;;;;;;;;;;;;;;5060482;28;2727;-71
2022/08/06 16:02:58;;;;;;;;;;;;;;;;;;5063465;28;2770;-71
2022/08/06 16:05:23;;;;;;;;;;;;;;;;;;5062766;28;2865;-71
2022/08/06 16:07:48;;;;;;;;;;;;;;;;;;5060862;28;2169;-71
2022/08/06 16:10:13;;;;;;;;;;;;;;;;;;5060576;28;2641;-71
2022/08/06 16:12:38;;;;;;;;;;;;;;;;;;5065926;28;1897;-71
2022/08/06 16:15:04;;;;;;;;;;;;;;;;;;5059554;28;2876;-71
2022/08/06 16:17:30;;;;;;;;;;;;;;;;;;5062993;28;1980;-71
2022/08/06 16:19:55;;;;;;;;;;;;;;;;;;5060314;28;2313;-71
2022/08/06 16:22:20;;;;;;;;;;;;;;;;;;5058919;28;2748;-71
2022/08/06 16:24:47;;;;;;;;;;;;;;;;;;5061058;28;2024;-71
2022/08/06 16:27:12;;;;;;;;;;;;;;;;;;5057979;28;1719;-71
2022/08/06 16:29:37;;;;;;;;;;;;;;;;;;5064624;28;2772;-71
2022/08/06 16:32:03;;;;;;;;;;;;;;;;;;5057263;28;1880;-71
2022/08/06 16:34:29;;;;;;;;;;;;;;;;;;5063311;28;2771;-71
2022/08/06 16:36:54;;;;;;;;;;;;;;;;;;5056305;28;1814;-71
2022/08/06 16:39:19;;;;;;;;;;;;;;;;;;5058162;28;2368;-71
2022/08/06 16:41:44;;;;;;;;;;;;;;;;;;5061034;28;1814;-71
2022/08/06 16:44:09;;;;;;;;;;;;;;;;;;5064227;28;2351;-71
2022/08/06 16:46:36;;;;;;;;;;;;;;;;;;5056898;28;1700;-71
2022/08/06 16:49:01;;;;;;;;;;;;;;;;;;5057680;28;2161;-71
2022/08/06 16:51:28;;;;;;;;;;;;;;;;;;5058378;28;1909;-71
2022/08/06 16:53:54;;;;;;;;;;;;;;;;;;5062661;28;2984;-71
2022/08/06 16:56:19;;;;;;;;;;;;;;;;;;5062425;28;2693;-71
2022/08/06 16:58:44;;;;;;;;;;;;;;;;;;5063574;28;2546;-71
2022/08/06 17:01:09;;;;;;;;;;;;;;;;;;5057291;28;2550;-71
2022/08/06 17:03:35;;;;;;;;;;;;;;;;;;5060331;28;2928;-71
2022/08/06 17:06:00;;;;;;;;;;;;;;;;;;5054106;28;2745;-70
2022/08/06 17:08:26;;;;;;;;;;;;;;;;;;5064700;28;2894;-71